sensor_id;sensor_type;location;lat;lon;timestamp;P1;durP1;ratioP1;P2;durP2;ratioP2
47287;SDS011;33020;53.008;13.558;2022-11-24T00:01:12;92.20;;;40.50;;
47287;SDS011;33020;53.008;13.558;2022-11-24T00:03:51;82.33;;;37.17;;
47287;SDS011;33020;53.008;13.558;2022-11-24T00:06:19;78.97;;;37.80;;
47287;SDS011;33020;53.008;13.558;2022-11-24T00:08:46;90.50;;;38.97;;
47287;SDS011;33020;53.008;13.558;2022-11-24T00:11:14;93.93;;;41.07;;
47287;SDS011;33020;53.008;13.558;2022-11-24T00:13:42;86.77;;;37.80;;
47287;SDS011;33020;53.008;13.558;2022-11-24T00:16:13;91.93;;;38.47;;
47287;SDS011;33020;53.008;13.558;2022-11-24T00:18:42;79.07;;;36.60;;
47287;SDS011;33020;53.008;13.558;2022-11-24T00:21:09;85.20;;;39.17;;
47287;SDS011;33020;53.008;13.558;2022-11-24T00:23:36;84.83;;;36.57;;
47287;SDS011;33020;53.008;13.558;2022-11-24T00:28:31;76.77;;;33.80;;
47287;SDS011;33020;53.008;13.558;2022-11-24T00:30:59;76.10;;;35.53;;
47287;SDS011;33020;53.008;13.558;2022-11-24T00:33:26;81.93;;;36.23;;
47287;SDS011;33020;53.008;13.558;2022-11-24T00:35:54;85.37;;;37.10;;
47287;SDS011;33020;53.008;13.558;2022-11-24T00:38:22;79.97;;;34.57;;
47287;SDS011;33020;53.008;13.558;2022-11-24T00:40:50;82.17;;;34.00;;
47287;SDS011;33020;53.008;13.558;2022-11-24T00:43:17;76.07;;;34.53;;
47287;SDS011;33020;53.008;13.558;2022-11-24T00:45:44;74.77;;;34.37;;
47287;SDS011;33020;53.008;13.558;2022-11-24T00:48:13;77.10;;;34.30;;
47287;SDS011;33020;53.008;13.558;2022-11-24T00:50:40;79.13;;;35.43;;
47287;SDS011;33020;53.008;13.558;2022-11-24T00:53:07;78.67;;;33.60;;
47287;SDS011;33020;53.008;13.558;2022-11-24T00:55:34;77.47;;;34.77;;
47287;SDS011;33020;53.008;13.558;2022-11-24T00:58:00;84.97;;;36.47;;
47287;SDS011;33020;53.008;13.558;2022-11-24T01:00:27;83.10;;;36.73;;
47287;SDS011;33020;53.008;13.558;2022-11-24T01:02:54;87.43;;;37.03;;
47287;SDS011;33020;53.008;13.558;2022-11-24T01:05:25;80.23;;;33.70;;
47287;SDS011;33020;53.008;13.558;2022-11-24T01:07:52;75.83;;;34.33;;
47287;SDS011;33020;53.008;13.558;2022-11-24T01:10:20;79.97;;;34.53;;
47287;SDS011;33020;53.008;13.558;2022-11-24T01:12:47;86.53;;;35.93;;
47287;SDS011;33020;53.008;13.558;2022-11-24T01:15:13;84.03;;;35.67;;
47287;SDS011;33020;53.008;13.558;2022-11-24T01:17:40;84.63;;;37.53;;
47287;SDS011;33020;53.008;13.558;2022-11-24T01:20:07;77.57;;;35.27;;
47287;SDS011;33020;53.008;13.558;2022-11-24T01:22:34;78.57;;;35.27;;
47287;SDS011;33020;53.008;13.558;2022-11-24T01:25:01;84.50;;;36.43;;
47287;SDS011;33020;53.008;13.558;2022-11-24T01:27:27;78.77;;;35.43;;
47287;SDS011;33020;53.008;13.558;2022-11-24T01:29:54;66.07;;;32.73;;
47287;SDS011;33020;53.008;13.558;2022-11-24T01:32:21;75.67;;;33.63;;
47287;SDS011;33020;53.008;13.558;2022-11-24T01:34:47;74.67;;;33.47;;
47287;SDS011;33020;53.008;13.558;2022-11-24T01:37:14;81.37;;;32.87;;
47287;SDS011;33020;53.008;13.558;2022-11-24T01:39:41;73.30;;;34.00;;
47287;SDS011;33020;53.008;13.558;2022-11-24T01:42:07;75.57;;;35.40;;
47287;SDS011;33020;53.008;13.558;2022-11-24T01:44:34;75.63;;;32.47;;
47287;SDS011;33020;53.008;13.558;2022-11-24T01:47:03;77.13;;;32.70;;
47287;SDS011;33020;53.008;13.558;2022-11-24T01:49:38;80.03;;;35.47;;
47287;SDS011;33020;53.008;13.558;2022-11-24T01:52:09;71.43;;;32.33;;
47287;SDS011;33020;53.008;13.558;2022-11-24T01:57:17;78.30;;;33.03;;
47287;SDS011;33020;53.008;13.558;2022-11-24T01:59:52;77.50;;;34.30;;
47287;SDS011;33020;53.008;13.558;2022-11-24T02:02:21;83.27;;;35.60;;
47287;SDS011;33020;53.008;13.558;2022-11-24T02:04:48;76.80;;;33.67;;
47287;SDS011;33020;53.008;13.558;2022-11-24T02:07:16;74.73;;;33.53;;
47287;SDS011;33020;53.008;13.558;2022-11-24T02:09:47;72.00;;;31.40;;
47287;SDS011;33020;53.008;13.558;2022-11-24T02:12:16;78.80;;;34.80;;
47287;SDS011;33020;53.008;13.558;2022-11-24T02:14:43;77.40;;;33.23;;
47287;SDS011;33020;53.008;13.558;2022-11-24T02:17:10;74.00;;;33.00;;
47287;SDS011;33020;53.008;13.558;2022-11-24T02:19:42;70.93;;;32.17;;
47287;SDS011;33020;53.008;13.558;2022-11-24T02:22:20;76.13;;;31.70;;
47287;SDS011;33020;53.008;13.558;2022-11-24T02:27:59;74.65;;;31.92;;
47287;SDS011;33020;53.008;13.558;2022-11-24T02:30:26;74.27;;;31.17;;
47287;SDS011;33020;53.008;13.558;2022-11-24T02:32:53;72.67;;;31.50;;
47287;SDS011;33020;53.008;13.558;2022-11-24T02:35:20;74.57;;;33.43;;
47287;SDS011;33020;53.008;13.558;2022-11-24T02:37:47;71.33;;;31.40;;
47287;SDS011;33020;53.008;13.558;2022-11-24T02:40:14;73.63;;;31.30;;
47287;SDS011;33020;53.008;13.558;2022-11-24T02:42:42;76.40;;;34.10;;
47287;SDS011;33020;53.008;13.558;2022-11-24T02:45:10;75.93;;;31.77;;
47287;SDS011;33020;53.008;13.558;2022-11-24T02:47:37;71.80;;;33.13;;
47287;SDS011;33020;53.008;13.558;2022-11-24T02:50:04;78.10;;;33.20;;
47287;SDS011;33020;53.008;13.558;2022-11-24T02:52:31;74.93;;;33.13;;
47287;SDS011;33020;53.008;13.558;2022-11-24T02:54:58;76.33;;;32.80;;
47287;SDS011;33020;53.008;13.558;2022-11-24T02:57:24;69.80;;;32.60;;
47287;SDS011;33020;53.008;13.558;2022-11-24T02:59:51;72.57;;;31.47;;
47287;SDS011;33020;53.008;13.558;2022-11-24T03:02:18;75.53;;;32.20;;
47287;SDS011;33020;53.008;13.558;2022-11-24T03:04:44;81.90;;;34.23;;
47287;SDS011;33020;53.008;13.558;2022-11-24T03:07:11;77.73;;;32.30;;
47287;SDS011;33020;53.008;13.558;2022-11-24T03:09:38;65.90;;;29.97;;
47287;SDS011;33020;53.008;13.558;2022-11-24T03:12:05;66.23;;;30.57;;
47287;SDS011;33020;53.008;13.558;2022-11-24T03:14:31;58.97;;;29.53;;
47287;SDS011;33020;53.008;13.558;2022-11-24T03:16:58;68.27;;;30.67;;
47287;SDS011;33020;53.008;13.558;2022-11-24T03:19:25;66.37;;;30.33;;
47287;SDS011;33020;53.008;13.558;2022-11-24T03:21:52;70.57;;;31.53;;
47287;SDS011;33020;53.008;13.558;2022-11-24T03:24:18;71.87;;;31.83;;
47287;SDS011;33020;53.008;13.558;2022-11-24T03:26:45;70.00;;;31.40;;
47287;SDS011;33020;53.008;13.558;2022-11-24T03:29:12;72.83;;;31.70;;
47287;SDS011;33020;53.008;13.558;2022-11-24T03:31:38;65.67;;;32.17;;
47287;SDS011;33020;53.008;13.558;2022-11-24T03:34:05;64.60;;;30.53;;
47287;SDS011;33020;53.008;13.558;2022-11-24T03:36:32;64.87;;;29.27;;
47287;SDS011;33020;53.008;13.558;2022-11-24T03:38:58;63.33;;;27.27;;
47287;SDS011;33020;53.008;13.558;2022-11-24T03:41:25;69.93;;;27.73;;
47287;SDS011;33020;53.008;13.558;2022-11-24T03:43:52;64.97;;;28.07;;
47287;SDS011;33020;53.008;13.558;2022-11-24T03:46:18;84.47;;;28.97;;
47287;SDS011;33020;53.008;13.558;2022-11-24T03:48:45;64.40;;;27.13;;
47287;SDS011;33020;53.008;13.558;2022-11-24T03:51:12;57.30;;;27.20;;
47287;SDS011;33020;53.008;13.558;2022-11-24T03:53:38;71.27;;;29.53;;
47287;SDS011;33020;53.008;13.558;2022-11-24T03:56:05;64.37;;;27.20;;
47287;SDS011;33020;53.008;13.558;2022-11-24T03:58:32;70.13;;;27.23;;
47287;SDS011;33020;53.008;13.558;2022-11-24T04:00:58;59.03;;;28.27;;
47287;SDS011;33020;53.008;13.558;2022-11-24T04:03:25;56.67;;;26.00;;
47287;SDS011;33020;53.008;13.558;2022-11-24T04:05:52;63.10;;;27.90;;
47287;SDS011;33020;53.008;13.558;2022-11-24T04:08:19;64.67;;;29.07;;
47287;SDS011;33020;53.008;13.558;2022-11-24T04:10:49;58.70;;;26.60;;
47287;SDS011;33020;53.008;13.558;2022-11-24T04:13:18;62.20;;;27.27;;
47287;SDS011;33020;53.008;13.558;2022-11-24T04:15:46;67.50;;;28.80;;
47287;SDS011;33020;53.008;13.558;2022-11-24T04:18:13;58.53;;;26.87;;
47287;SDS011;33020;53.008;13.558;2022-11-24T04:20:40;68.83;;;30.30;;
47287;SDS011;33020;53.008;13.558;2022-11-24T04:23:07;63.20;;;29.63;;
47287;SDS011;33020;53.008;13.558;2022-11-24T04:25:34;63.73;;;28.00;;
47287;SDS011;33020;53.008;13.558;2022-11-24T04:28:02;66.73;;;28.07;;
47287;SDS011;33020;53.008;13.558;2022-11-24T04:30:29;67.20;;;29.60;;
47287;SDS011;33020;53.008;13.558;2022-11-24T04:32:56;61.37;;;31.27;;
47287;SDS011;33020;53.008;13.558;2022-11-24T04:35:23;62.13;;;26.80;;
47287;SDS011;33020;53.008;13.558;2022-11-24T04:37:49;61.90;;;27.93;;
47287;SDS011;33020;53.008;13.558;2022-11-24T04:40:16;61.70;;;28.07;;
47287;SDS011;33020;53.008;13.558;2022-11-24T04:42:43;58.10;;;26.70;;
47287;SDS011;33020;53.008;13.558;2022-11-24T04:45:10;55.40;;;24.50;;
47287;SDS011;33020;53.008;13.558;2022-11-24T04:47:36;63.87;;;28.23;;
47287;SDS011;33020;53.008;13.558;2022-11-24T04:50:04;66.70;;;27.73;;
47287;SDS011;33020;53.008;13.558;2022-11-24T04:52:33;55.60;;;25.70;;
47287;SDS011;33020;53.008;13.558;2022-11-24T04:54:59;65.87;;;26.93;;
47287;SDS011;33020;53.008;13.558;2022-11-24T04:57:26;54.13;;;26.17;;
47287;SDS011;33020;53.008;13.558;2022-11-24T04:59:53;60.33;;;27.63;;
47287;SDS011;33020;53.008;13.558;2022-11-24T05:02:20;58.60;;;27.20;;
47287;SDS011;33020;53.008;13.558;2022-11-24T05:04:47;58.90;;;26.67;;
47287;SDS011;33020;53.008;13.558;2022-11-24T05:07:14;57.07;;;26.60;;
47287;SDS011;33020;53.008;13.558;2022-11-24T05:09:45;61.63;;;25.90;;
47287;SDS011;33020;53.008;13.558;2022-11-24T05:12:30;57.33;;;26.43;;
47287;SDS011;33020;53.008;13.558;2022-11-24T05:14:57;67.37;;;28.60;;
47287;SDS011;33020;53.008;13.558;2022-11-24T05:17:28;60.80;;;24.97;;
47287;SDS011;33020;53.008;13.558;2022-11-24T05:19:56;59.50;;;27.10;;
47287;SDS011;33020;53.008;13.558;2022-11-24T05:22:23;57.27;;;26.57;;
47287;SDS011;33020;53.008;13.558;2022-11-24T05:24:50;57.27;;;26.27;;
47287;SDS011;33020;53.008;13.558;2022-11-24T05:27:16;56.57;;;25.90;;
47287;SDS011;33020;53.008;13.558;2022-11-24T05:29:43;67.83;;;25.73;;
47287;SDS011;33020;53.008;13.558;2022-11-24T05:32:10;56.07;;;24.40;;
47287;SDS011;33020;53.008;13.558;2022-11-24T05:34:36;66.37;;;25.67;;
47287;SDS011;33020;53.008;13.558;2022-11-24T05:37:03;57.03;;;25.20;;
47287;SDS011;33020;53.008;13.558;2022-11-24T05:39:34;60.63;;;25.20;;
47287;SDS011;33020;53.008;13.558;2022-11-24T05:42:01;64.43;;;25.83;;
47287;SDS011;33020;53.008;13.558;2022-11-24T05:44:49;53.67;;;25.50;;
47287;SDS011;33020;53.008;13.558;2022-11-24T05:47:16;52.33;;;23.60;;
47287;SDS011;33020;53.008;13.558;2022-11-24T05:49:42;58.53;;;24.17;;
47287;SDS011;33020;53.008;13.558;2022-11-24T05:52:09;54.93;;;24.63;;
47287;SDS011;33020;53.008;13.558;2022-11-24T05:54:36;56.60;;;25.50;;
47287;SDS011;33020;53.008;13.558;2022-11-24T05:57:03;56.30;;;25.13;;
47287;SDS011;33020;53.008;13.558;2022-11-24T05:59:30;55.37;;;26.10;;
47287;SDS011;33020;53.008;13.558;2022-11-24T06:01:57;56.93;;;25.53;;
47287;SDS011;33020;53.008;13.558;2022-11-24T06:04:24;49.00;;;22.80;;
47287;SDS011;33020;53.008;13.558;2022-11-24T06:06:51;54.37;;;25.07;;
47287;SDS011;33020;53.008;13.558;2022-11-24T06:09:18;51.70;;;23.80;;
47287;SDS011;33020;53.008;13.558;2022-11-24T06:11:45;50.83;;;23.23;;
47287;SDS011;33020;53.008;13.558;2022-11-24T06:14:12;54.40;;;23.93;;
47287;SDS011;33020;53.008;13.558;2022-11-24T06:16:39;64.40;;;26.60;;
47287;SDS011;33020;53.008;13.558;2022-11-24T06:19:07;52.47;;;24.03;;
47287;SDS011;33020;53.008;13.558;2022-11-24T06:21:34;52.50;;;22.13;;
47287;SDS011;33020;53.008;13.558;2022-11-24T06:24:01;53.57;;;23.50;;
47287;SDS011;33020;53.008;13.558;2022-11-24T06:26:28;45.40;;;21.47;;
47287;SDS011;33020;53.008;13.558;2022-11-24T06:28:54;50.23;;;22.10;;
47287;SDS011;33020;53.008;13.558;2022-11-24T06:31:21;48.07;;;21.60;;
47287;SDS011;33020;53.008;13.558;2022-11-24T06:33:48;52.70;;;23.70;;
47287;SDS011;33020;53.008;13.558;2022-11-24T06:36:15;53.67;;;22.47;;
47287;SDS011;33020;53.008;13.558;2022-11-24T06:38:42;46.10;;;21.97;;
47287;SDS011;33020;53.008;13.558;2022-11-24T06:41:10;49.37;;;21.50;;
47287;SDS011;33020;53.008;13.558;2022-11-24T06:43:38;48.13;;;22.40;;
47287;SDS011;33020;53.008;13.558;2022-11-24T06:46:05;49.43;;;23.00;;
47287;SDS011;33020;53.008;13.558;2022-11-24T06:48:32;49.60;;;21.80;;
47287;SDS011;33020;53.008;13.558;2022-11-24T06:50:59;45.10;;;21.77;;
47287;SDS011;33020;53.008;13.558;2022-11-24T06:53:31;41.13;;;19.63;;
47287;SDS011;33020;53.008;13.558;2022-11-24T06:55:58;49.00;;;23.37;;
47287;SDS011;33020;53.008;13.558;2022-11-24T06:58:26;49.50;;;22.60;;
47287;SDS011;33020;53.008;13.558;2022-11-24T07:00:53;47.80;;;20.80;;
47287;SDS011;33020;53.008;13.558;2022-11-24T07:03:19;43.43;;;21.87;;
47287;SDS011;33020;53.008;13.558;2022-11-24T07:05:46;46.90;;;21.83;;
47287;SDS011;33020;53.008;13.558;2022-11-24T07:08:13;46.13;;;20.83;;
47287;SDS011;33020;53.008;13.558;2022-11-24T07:10:43;46.50;;;22.27;;
47287;SDS011;33020;53.008;13.558;2022-11-24T07:13:10;42.67;;;20.03;;
47287;SDS011;33020;53.008;13.558;2022-11-24T07:15:36;49.07;;;21.67;;
47287;SDS011;33020;53.008;13.558;2022-11-24T07:18:03;49.87;;;23.03;;
47287;SDS011;33020;53.008;13.558;2022-11-24T07:20:30;46.60;;;20.87;;
47287;SDS011;33020;53.008;13.558;2022-11-24T07:22:57;45.00;;;21.43;;
47287;SDS011;33020;53.008;13.558;2022-11-24T07:25:24;42.50;;;20.83;;
47287;SDS011;33020;53.008;13.558;2022-11-24T07:27:54;47.30;;;22.00;;
47287;SDS011;33020;53.008;13.558;2022-11-24T07:30:24;46.53;;;19.73;;
47287;SDS011;33020;53.008;13.558;2022-11-24T07:32:57;42.37;;;19.80;;
47287;SDS011;33020;53.008;13.558;2022-11-24T07:35:24;46.37;;;19.73;;
47287;SDS011;33020;53.008;13.558;2022-11-24T07:37:54;41.13;;;19.40;;
47287;SDS011;33020;53.008;13.558;2022-11-24T07:40:22;42.67;;;19.47;;
47287;SDS011;33020;53.008;13.558;2022-11-24T07:42:50;43.70;;;20.27;;
47287;SDS011;33020;53.008;13.558;2022-11-24T07:45:16;41.47;;;20.10;;
47287;SDS011;33020;53.008;13.558;2022-11-24T07:47:43;46.37;;;20.00;;
47287;SDS011;33020;53.008;13.558;2022-11-24T07:50:10;48.07;;;19.87;;
47287;SDS011;33020;53.008;13.558;2022-11-24T07:52:37;46.47;;;20.47;;
47287;SDS011;33020;53.008;13.558;2022-11-24T07:55:04;41.27;;;18.60;;
47287;SDS011;33020;53.008;13.558;2022-11-24T07:57:33;42.87;;;20.37;;
47287;SDS011;33020;53.008;13.558;2022-11-24T07:59:59;45.30;;;22.23;;
47287;SDS011;33020;53.008;13.558;2022-11-24T08:02:26;49.93;;;21.27;;
47287;SDS011;33020;53.008;13.558;2022-11-24T08:04:53;46.73;;;20.10;;
47287;SDS011;33020;53.008;13.558;2022-11-24T08:07:20;52.03;;;22.20;;
47287;SDS011;33020;53.008;13.558;2022-11-24T08:09:47;43.23;;;19.83;;
47287;SDS011;33020;53.008;13.558;2022-11-24T08:12:15;38.93;;;19.57;;
47287;SDS011;33020;53.008;13.558;2022-11-24T08:14:47;39.13;;;18.07;;
47287;SDS011;33020;53.008;13.558;2022-11-24T08:17:18;44.20;;;20.80;;
47287;SDS011;33020;53.008;13.558;2022-11-24T08:19:45;42.27;;;19.87;;
47287;SDS011;33020;53.008;13.558;2022-11-24T08:22:11;43.97;;;20.50;;
47287;SDS011;33020;53.008;13.558;2022-11-24T08:24:38;41.67;;;20.33;;
47287;SDS011;33020;53.008;13.558;2022-11-24T08:27:12;46.47;;;20.70;;
47287;SDS011;33020;53.008;13.558;2022-11-24T08:29:39;42.43;;;19.27;;
47287;SDS011;33020;53.008;13.558;2022-11-24T08:32:06;43.97;;;20.00;;
47287;SDS011;33020;53.008;13.558;2022-11-24T08:34:33;45.57;;;21.10;;
47287;SDS011;33020;53.008;13.558;2022-11-24T08:37:01;42.30;;;21.27;;
47287;SDS011;33020;53.008;13.558;2022-11-24T08:39:29;51.10;;;22.83;;
47287;SDS011;33020;53.008;13.558;2022-11-24T08:41:56;45.03;;;20.93;;
47287;SDS011;33020;53.008;13.558;2022-11-24T08:44:23;41.77;;;20.03;;
47287;SDS011;33020;53.008;13.558;2022-11-24T08:46:50;39.07;;;18.73;;
47287;SDS011;33020;53.008;13.558;2022-11-24T08:49:19;43.10;;;20.73;;
47287;SDS011;33020;53.008;13.558;2022-11-24T08:51:47;43.83;;;20.63;;
47287;SDS011;33020;53.008;13.558;2022-11-24T08:54:15;41.53;;;20.43;;
47287;SDS011;33020;53.008;13.558;2022-11-24T08:56:44;40.20;;;19.97;;
47287;SDS011;33020;53.008;13.558;2022-11-24T08:59:12;40.23;;;19.30;;
47287;SDS011;33020;53.008;13.558;2022-11-24T09:01:39;40.90;;;19.77;;
47287;SDS011;33020;53.008;13.558;2022-11-24T09:04:07;44.73;;;20.17;;
47287;SDS011;33020;53.008;13.558;2022-11-24T09:06:34;41.57;;;19.47;;
47287;SDS011;33020;53.008;13.558;2022-11-24T09:09:00;42.40;;;19.67;;
47287;SDS011;33020;53.008;13.558;2022-11-24T09:11:27;36.40;;;18.50;;
47287;SDS011;33020;53.008;13.558;2022-11-24T09:13:54;36.90;;;18.70;;
47287;SDS011;33020;53.008;13.558;2022-11-24T09:16:22;35.13;;;19.17;;
47287;SDS011;33020;53.008;13.558;2022-11-24T09:18:58;33.63;;;17.53;;
47287;SDS011;33020;53.008;13.558;2022-11-24T09:21:27;41.97;;;19.93;;
47287;SDS011;33020;53.008;13.558;2022-11-24T09:23:54;37.70;;;18.17;;
47287;SDS011;33020;53.008;13.558;2022-11-24T09:26:22;40.07;;;18.00;;
47287;SDS011;33020;53.008;13.558;2022-11-24T09:28:51;41.67;;;20.70;;
47287;SDS011;33020;53.008;13.558;2022-11-24T09:31:25;38.10;;;18.53;;
47287;SDS011;33020;53.008;13.558;2022-11-24T09:33:55;38.00;;;18.05;;
47287;SDS011;33020;53.008;13.558;2022-11-24T09:36:22;39.67;;;20.07;;
47287;SDS011;33020;53.008;13.558;2022-11-24T09:38:49;41.47;;;18.40;;
47287;SDS011;33020;53.008;13.558;2022-11-24T09:44:21;40.90;;;19.73;;
47287;SDS011;33020;53.008;13.558;2022-11-24T09:52:34;60.10;;;32.53;;
47287;SDS011;33020;53.008;13.558;2022-11-24T10:01:17;44.53;;;21.27;;
47287;SDS011;33020;53.008;13.558;2022-11-24T10:04:03;46.00;;;27.73;;
47287;SDS011;33020;53.008;13.558;2022-11-24T10:15:05;39.60;;;18.47;;
47287;SDS011;33020;53.008;13.558;2022-11-24T10:17:58;37.77;;;18.63;;
47287;SDS011;33020;53.008;13.558;2022-11-24T10:26:25;41.93;;;21.37;;
47287;SDS011;33020;53.008;13.558;2022-11-24T10:29:01;37.10;;;19.37;;
47287;SDS011;33020;53.008;13.558;2022-11-24T10:31:48;45.53;;;21.77;;
47287;SDS011;33020;53.008;13.558;2022-11-24T10:34:20;39.23;;;18.47;;
47287;SDS011;33020;53.008;13.558;2022-11-24T10:36:57;39.43;;;18.27;;
47287;SDS011;33020;53.008;13.558;2022-11-24T10:39:36;43.27;;;20.20;;
47287;SDS011;33020;53.008;13.558;2022-11-24T10:45:15;84.43;;;36.57;;
47287;SDS011;33020;53.008;13.558;2022-11-24T10:47:43;50.87;;;23.47;;
47287;SDS011;33020;53.008;13.558;2022-11-24T10:50:17;38.33;;;19.77;;
47287;SDS011;33020;53.008;13.558;2022-11-24T10:52:50;40.50;;;18.87;;
47287;SDS011;33020;53.008;13.558;2022-11-24T10:55:55;38.10;;;18.97;;
47287;SDS011;33020;53.008;13.558;2022-11-24T10:58:27;28.77;;;16.53;;
47287;SDS011;33020;53.008;13.558;2022-11-24T11:03:48;35.17;;;18.67;;
47287;SDS011;33020;53.008;13.558;2022-11-24T11:08:47;34.07;;;18.83;;
47287;SDS011;33020;53.008;13.558;2022-11-24T11:13:57;33.83;;;17.93;;
47287;SDS011;33020;53.008;13.558;2022-11-24T11:16:43;37.43;;;18.77;;
47287;SDS011;33020;53.008;13.558;2022-11-24T11:22:27;40.10;;;19.73;;
47287;SDS011;33020;53.008;13.558;2022-11-24T11:27:38;31.50;;;16.67;;
47287;SDS011;33020;53.008;13.558;2022-11-24T11:33:01;38.57;;;18.27;;
47287;SDS011;33020;53.008;13.558;2022-11-24T11:35:48;39.03;;;19.40;;
47287;SDS011;33020;53.008;13.558;2022-11-24T11:38:15;37.97;;;17.67;;
47287;SDS011;33020;53.008;13.558;2022-11-24T11:40:42;33.33;;;18.20;;
47287;SDS011;33020;53.008;13.558;2022-11-24T11:46:02;35.23;;;18.63;;
47287;SDS011;33020;53.008;13.558;2022-11-24T11:48:32;39.80;;;19.17;;
47287;SDS011;33020;53.008;13.558;2022-11-24T11:54:06;34.23;;;18.50;;
47287;SDS011;33020;53.008;13.558;2022-11-24T11:56:40;39.30;;;20.33;;
47287;SDS011;33020;53.008;13.558;2022-11-24T11:59:20;33.83;;;17.40;;
47287;SDS011;33020;53.008;13.558;2022-11-24T12:02:10;39.03;;;17.93;;
47287;SDS011;33020;53.008;13.558;2022-11-24T12:04:51;35.83;;;18.50;;
47287;SDS011;33020;53.008;13.558;2022-11-24T12:10:52;34.67;;;17.67;;
47287;SDS011;33020;53.008;13.558;2022-11-24T12:13:30;36.53;;;17.37;;
47287;SDS011;33020;53.008;13.558;2022-11-24T12:16:26;36.53;;;19.03;;
47287;SDS011;33020;53.008;13.558;2022-11-24T12:21:42;36.63;;;18.20;;
47287;SDS011;33020;53.008;13.558;2022-11-24T12:27:26;42.22;;;19.98;;
47287;SDS011;33020;53.008;13.558;2022-11-24T12:30:01;41.57;;;19.80;;
47287;SDS011;33020;53.008;13.558;2022-11-24T12:32:59;41.83;;;19.63;;
47287;SDS011;33020;53.008;13.558;2022-11-24T12:35:44;43.03;;;21.30;;
47287;SDS011;33020;53.008;13.558;2022-11-24T12:44:20;39.47;;;20.03;;
47287;SDS011;33020;53.008;13.558;2022-11-24T12:49:47;39.70;;;20.73;;
47287;SDS011;33020;53.008;13.558;2022-11-24T12:52:25;41.93;;;19.57;;
47287;SDS011;33020;53.008;13.558;2022-11-24T12:54:54;42.30;;;21.30;;
47287;SDS011;33020;53.008;13.558;2022-11-24T12:57:29;38.23;;;20.40;;
47287;SDS011;33020;53.008;13.558;2022-11-24T13:00:03;36.77;;;19.20;;
47287;SDS011;33020;53.008;13.558;2022-11-24T13:05:27;39.00;;;19.73;;
47287;SDS011;33020;53.008;13.558;2022-11-24T13:07:59;38.73;;;19.17;;
47287;SDS011;33020;53.008;13.558;2022-11-24T13:10:34;35.90;;;18.30;;
47287;SDS011;33020;53.008;13.558;2022-11-24T13:13:22;39.00;;;20.07;;
47287;SDS011;33020;53.008;13.558;2022-11-24T13:18:51;40.93;;;19.27;;
47287;SDS011;33020;53.008;13.558;2022-11-24T13:26:45;40.67;;;20.83;;
47287;SDS011;33020;53.008;13.558;2022-11-24T13:31:52;43.90;;;21.80;;
47287;SDS011;33020;53.008;13.558;2022-11-24T13:34:52;40.57;;;20.67;;
47287;SDS011;33020;53.008;13.558;2022-11-24T13:37:18;39.58;;;20.33;;
47287;SDS011;33020;53.008;13.558;2022-11-24T14:01:31;44.33;;;20.00;;
47287;SDS011;33020;53.008;13.558;2022-11-24T14:06:58;36.37;;;18.87;;
47287;SDS011;33020;53.008;13.558;2022-11-24T14:09:34;42.07;;;20.30;;
47287;SDS011;33020;53.008;13.558;2022-11-24T14:12:09;40.20;;;20.10;;
47287;SDS011;33020;53.008;13.558;2022-11-24T14:14:39;42.03;;;21.33;;
47287;SDS011;33020;53.008;13.558;2022-11-24T14:19:41;41.73;;;21.10;;
47287;SDS011;33020;53.008;13.558;2022-11-24T14:24:53;37.20;;;19.37;;
47287;SDS011;33020;53.008;13.558;2022-11-24T14:27:35;41.10;;;20.03;;
47287;SDS011;33020;53.008;13.558;2022-11-24T14:30:05;34.73;;;19.47;;
47287;SDS011;33020;53.008;13.558;2022-11-24T14:38:00;37.15;;;19.25;;
47287;SDS011;33020;53.008;13.558;2022-11-24T14:43:22;35.50;;;18.80;;
47287;SDS011;33020;53.008;13.558;2022-11-24T14:45:50;37.23;;;19.33;;
47287;SDS011;33020;53.008;13.558;2022-11-24T14:48:19;39.50;;;20.53;;
47287;SDS011;33020;53.008;13.558;2022-11-24T14:50:52;42.13;;;20.07;;
47287;SDS011;33020;53.008;13.558;2022-11-24T14:53:19;37.10;;;18.77;;
47287;SDS011;33020;53.008;13.558;2022-11-24T14:59:00;39.87;;;20.77;;
47287;SDS011;33020;53.008;13.558;2022-11-24T15:04:09;39.17;;;21.93;;
47287;SDS011;33020;53.008;13.558;2022-11-24T15:07:13;39.77;;;18.53;;
47287;SDS011;33020;53.008;13.558;2022-11-24T15:12:24;40.87;;;20.77;;
47287;SDS011;33020;53.008;13.558;2022-11-24T15:17:33;41.00;;;19.77;;
47287;SDS011;33020;53.008;13.558;2022-11-24T15:20:01;38.77;;;19.73;;
47287;SDS011;33020;53.008;13.558;2022-11-24T15:28:06;38.23;;;20.00;;
47287;SDS011;33020;53.008;13.558;2022-11-24T15:30:37;39.27;;;19.97;;
47287;SDS011;33020;53.008;13.558;2022-11-24T15:33:10;39.17;;;20.57;;
47287;SDS011;33020;53.008;13.558;2022-11-24T15:35:39;40.67;;;20.03;;
47287;SDS011;33020;53.008;13.558;2022-11-24T15:38:06;36.73;;;20.07;;
47287;SDS011;33020;53.008;13.558;2022-11-24T15:40:33;36.03;;;20.10;;
47287;SDS011;33020;53.008;13.558;2022-11-24T15:43:00;41.47;;;20.17;;
47287;SDS011;33020;53.008;13.558;2022-11-24T15:45:32;39.00;;;20.53;;
47287;SDS011;33020;53.008;13.558;2022-11-24T15:47:59;38.00;;;19.90;;
47287;SDS011;33020;53.008;13.558;2022-11-24T15:50:26;42.57;;;20.17;;
47287;SDS011;33020;53.008;13.558;2022-11-24T15:52:53;40.67;;;19.80;;
47287;SDS011;33020;53.008;13.558;2022-11-24T15:55:22;42.23;;;21.40;;
47287;SDS011;33020;53.008;13.558;2022-11-24T15:57:49;39.93;;;19.70;;
47287;SDS011;33020;53.008;13.558;2022-11-24T16:00:16;41.83;;;21.47;;
47287;SDS011;33020;53.008;13.558;2022-11-24T16:02:47;47.73;;;22.10;;
47287;SDS011;33020;53.008;13.558;2022-11-24T16:05:14;39.73;;;21.17;;
47287;SDS011;33020;53.008;13.558;2022-11-24T16:07:41;41.93;;;22.30;;
47287;SDS011;33020;53.008;13.558;2022-11-24T16:10:15;47.00;;;22.23;;
47287;SDS011;33020;53.008;13.558;2022-11-24T16:12:47;42.80;;;20.00;;
47287;SDS011;33020;53.008;13.558;2022-11-24T16:15:17;42.10;;;21.80;;
47287;SDS011;33020;53.008;13.558;2022-11-24T16:17:44;38.63;;;21.23;;
47287;SDS011;33020;53.008;13.558;2022-11-24T16:20:11;47.03;;;22.93;;
47287;SDS011;33020;53.008;13.558;2022-11-24T16:22:38;47.53;;;23.13;;
47287;SDS011;33020;53.008;13.558;2022-11-24T16:25:05;40.13;;;21.67;;
47287;SDS011;33020;53.008;13.558;2022-11-24T16:27:31;41.97;;;23.03;;
47287;SDS011;33020;53.008;13.558;2022-11-24T16:30:01;44.80;;;23.10;;
47287;SDS011;33020;53.008;13.558;2022-11-24T16:32:27;52.97;;;29.50;;
47287;SDS011;33020;53.008;13.558;2022-11-24T16:34:54;56.03;;;29.57;;
47287;SDS011;33020;53.008;13.558;2022-11-24T16:37:21;47.63;;;23.37;;
47287;SDS011;33020;53.008;13.558;2022-11-24T16:39:48;48.60;;;22.40;;
47287;SDS011;33020;53.008;13.558;2022-11-24T16:42:15;44.77;;;22.53;;
47287;SDS011;33020;53.008;13.558;2022-11-24T16:44:42;44.03;;;23.17;;
47287;SDS011;33020;53.008;13.558;2022-11-24T16:47:12;43.13;;;22.97;;
47287;SDS011;33020;53.008;13.558;2022-11-24T16:49:38;40.53;;;20.70;;
47287;SDS011;33020;53.008;13.558;2022-11-24T16:52:05;47.00;;;21.03;;